createdAt,value
2022-11-14T00:00:46.405Z,3.02
2022-11-14T00:03:31.851Z,2.99
2022-11-14T00:06:17.918Z,3.06
2022-11-14T00:09:03.488Z,2.95
2022-11-14T00:11:49.065Z,2.89
2022-11-14T00:14:34.623Z,2.39
2022-11-14T00:17:20.264Z,3.02
2022-11-14T00:20:08.499Z,3.07
2022-11-14T00:22:54.097Z,3.07
2022-11-14T00:25:39.718Z,3.11
2022-11-14T00:28:25.261Z,2.86
2022-11-14T00:31:11.676Z,3.08
2022-11-14T00:33:57.719Z,3.14
2022-11-14T00:36:43.083Z,3.00
2022-11-14T00:39:28.633Z,3.09
2022-11-14T00:42:14.328Z,3.05
2022-11-14T00:45:00.011Z,2.94
2022-11-14T00:47:45.510Z,3.05
2022-11-14T00:50:31.369Z,3.02
2022-11-14T00:53:16.897Z,2.95
2022-11-14T00:56:03.386Z,2.82
2022-11-14T00:58:49.286Z,1.45
2022-11-14T01:01:34.603Z,2.87
2022-11-14T01:04:20.308Z,2.52
2022-11-14T01:07:06.018Z,2.44
2022-11-14T01:09:51.842Z,2.84
2022-11-14T01:12:37.095Z,2.87
2022-11-14T01:15:22.887Z,2.82
2022-11-14T01:18:11.481Z,2.88
2022-11-14T01:20:58.096Z,2.94
2022-11-14T01:23:43.543Z,2.93
2022-11-14T01:26:29.472Z,2.89
2022-11-14T01:29:15.572Z,2.97
2022-11-14T01:32:01.714Z,3.03
2022-11-14T01:34:47.434Z,2.89
2022-11-14T01:37:32.690Z,2.94
2022-11-14T01:40:18.637Z,3.00
2022-11-14T01:43:19.794Z,3.05
2022-11-14T01:46:14.629Z,3.01
2022-11-14T01:49:18.694Z,3.07
2022-11-14T01:52:29.378Z,3.05
2022-11-14T01:55:14.678Z,2.98
2022-11-14T01:58:00.844Z,2.87
2022-11-14T02:00:46.734Z,3.00
2022-11-14T02:03:36.440Z,2.94
2022-11-14T02:06:26.707Z,2.24
2022-11-14T02:09:12.997Z,2.92
2022-11-14T02:12:01.414Z,2.34
2022-11-14T02:14:52.283Z,2.24
2022-11-14T02:17:37.914Z,2.80
2022-11-14T02:20:32.712Z,2.76
2022-11-14T02:23:30.951Z,2.66
2022-11-14T02:26:19.157Z,2.59
2022-11-14T02:29:06.276Z,2.47
2022-11-14T02:31:52.083Z,2.51
2022-11-14T02:34:37.477Z,2.40
2022-11-14T02:37:22.765Z,2.59
2022-11-14T02:40:09.606Z,2.30
2022-11-14T02:42:55.072Z,2.59
2022-11-14T02:45:41.298Z,2.60
2022-11-14T02:48:26.879Z,2.49
2022-11-14T02:51:12.228Z,2.50
2022-11-14T02:53:58.063Z,2.09
2022-11-14T02:56:43.515Z,2.52
2022-11-14T02:59:29.361Z,2.48
2022-11-14T03:02:14.898Z,2.52
2022-11-14T03:05:00.826Z,2.27
2022-11-14T03:07:55.011Z,2.50
2022-11-14T03:10:40.731Z,2.54
2022-11-14T03:13:29.755Z,2.54
2022-11-14T03:16:15.484Z,2.48
2022-11-14T03:19:02.601Z,2.56
2022-11-14T03:21:48.095Z,2.57
2022-11-14T03:24:33.815Z,2.45
2022-11-14T03:27:20.939Z,2.42
2022-11-14T03:30:07.351Z,2.33
2022-11-14T03:32:53.026Z,2.29
2022-11-14T03:35:43.317Z,2.51
2022-11-14T03:38:29.367Z,1.92
2022-11-14T03:41:15.246Z,2.49
2022-11-14T03:44:00.859Z,2.44
2022-11-14T03:46:46.267Z,2.43
2022-11-14T03:49:31.856Z,2.11
2022-11-14T03:52:17.491Z,2.45
2022-11-14T03:55:03.188Z,1.76
2022-11-14T03:57:48.853Z,2.44
2022-11-14T04:00:34.180Z,2.41
2022-11-14T04:03:19.970Z,2.39
2022-11-14T04:06:05.457Z,2.38
2022-11-14T04:08:52.048Z,2.09
2022-11-14T04:11:37.827Z,1.35
2022-11-14T04:14:23.423Z,2.27
2022-11-14T04:17:09.203Z,2.21
2022-11-14T04:19:55.126Z,2.17
2022-11-14T04:22:41.487Z,1.90
2022-11-14T04:25:27.093Z,2.02
2022-11-14T04:28:13.902Z,2.03
2022-11-14T04:31:00.601Z,1.75
2022-11-14T04:33:46.127Z,1.75
2022-11-14T04:36:31.825Z,1.78
2022-11-14T04:39:18.384Z,1.87
2022-11-14T04:42:04.412Z,1.86
2022-11-14T04:44:50.138Z,1.82
2022-11-14T04:47:35.966Z,1.78
2022-11-14T04:50:21.671Z,1.74
2022-11-14T04:53:07.240Z,1.74
2022-11-14T04:55:53.102Z,1.72
2022-11-14T04:58:38.550Z,1.29
2022-11-14T05:01:24.132Z,0.79
2022-11-14T05:04:09.480Z,1.51
2022-11-14T05:06:55.094Z,1.41
2022-11-14T05:09:40.919Z,1.38
2022-11-14T05:12:26.463Z,1.30
2022-11-14T05:15:12.057Z,1.07
2022-11-14T05:17:58.896Z,0.63
2022-11-14T05:20:44.616Z,1.27
2022-11-14T05:23:30.303Z,1.35
2022-11-14T05:26:18.057Z,0.98
2022-11-14T05:29:03.778Z,1.40
2022-11-14T05:31:49.214Z,1.30
2022-11-14T05:34:34.862Z,1.20
2022-11-14T05:37:20.624Z,1.24
2022-11-14T05:40:06.898Z,1.03
2022-11-14T05:42:55.565Z,1.12
2022-11-14T05:45:41.135Z,1.24
2022-11-14T05:48:27.165Z,1.12
2022-11-14T05:51:13.637Z,1.17
2022-11-14T05:53:59.182Z,1.22
2022-11-14T05:56:44.942Z,1.20
2022-11-14T05:59:30.521Z,1.18
2022-11-14T06:02:16.234Z,1.30
2022-11-14T06:05:01.897Z,1.10
2022-11-14T06:07:47.438Z,1.07
2022-11-14T06:10:35.765Z,1.28
2022-11-14T06:13:23.982Z,1.16
2022-11-14T06:16:18.854Z,-0.43
2022-11-14T06:19:05.442Z,0.64
2022-11-14T06:21:51.386Z,0.91
2022-11-14T06:24:37.126Z,1.35
2022-11-14T06:27:22.768Z,1.24
2022-11-14T06:30:09.231Z,1.28
2022-11-14T06:33:01.288Z,1.06
2022-11-14T06:35:46.789Z,1.33
2022-11-14T06:38:34.213Z,1.20
2022-11-14T06:41:21.888Z,1.24
2022-11-14T06:44:08.901Z,1.14
2022-11-14T06:46:57.183Z,1.22
2022-11-14T06:49:43.107Z,1.03
2022-11-14T06:52:31.525Z,0.51
2022-11-14T06:55:22.371Z,1.12
2022-11-14T06:58:11.052Z,0.76
2022-11-14T07:00:57.161Z,0.58
2022-11-14T07:03:43.809Z,1.31
2022-11-14T07:06:31.186Z,1.18
2022-11-14T07:09:16.824Z,1.21
2022-11-14T07:12:04.778Z,0.57
2022-11-14T07:14:50.338Z,1.23
2022-11-14T07:17:37.171Z,0.77
2022-11-14T07:20:22.845Z,0.77
2022-11-14T07:23:08.217Z,0.85
2022-11-14T07:25:54.407Z,1.20
2022-11-14T07:28:42.738Z,1.40
2022-11-14T07:31:28.553Z,1.41
2022-11-14T07:34:14.202Z,0.94
2022-11-14T07:36:59.910Z,1.38
2022-11-14T07:39:46.208Z,1.06
2022-11-14T07:42:31.751Z,1.17
2022-11-14T07:45:17.261Z,1.61
2022-11-14T07:48:03.346Z,1.43
2022-11-14T07:50:48.877Z,1.58
2022-11-14T07:53:34.805Z,1.25
2022-11-14T07:56:20.437Z,1.81
2022-11-14T07:59:06.502Z,0.37
2022-11-14T08:01:52.373Z,1.90
2022-11-14T08:04:37.979Z,1.84
2022-11-14T08:07:23.568Z,1.35
2022-11-14T08:10:11.549Z,1.82
2022-11-14T08:13:29.804Z,1.84
2022-11-14T08:16:13.285Z,2.27
2022-11-14T08:18:59.332Z,3.29
2022-11-14T08:21:45.038Z,4.53
2022-11-14T08:24:30.544Z,6.71
2022-11-14T08:27:16.525Z,8.15
2022-11-14T08:30:02.344Z,9.19
2022-11-14T08:32:48.453Z,10.80
2022-11-14T08:35:34.337Z,11.46
2022-11-14T08:38:19.832Z,11.79
2022-11-14T08:41:05.928Z,12.04
2022-11-14T08:43:51.502Z,12.68
2022-11-14T08:46:37.855Z,12.66
2022-11-14T08:49:24.834Z,12.53
2022-11-14T08:52:16.328Z,12.34
2022-11-14T08:55:03.172Z,11.81
2022-11-14T08:57:50.145Z,11.17
2022-11-14T09:00:36.916Z,10.24
2022-11-14T09:03:23.338Z,9.70
2022-11-14T09:06:08.996Z,8.96
2022-11-14T09:08:55.719Z,8.21
2022-11-14T09:11:41.570Z,7.24
2022-11-14T09:14:27.645Z,6.96
2022-11-14T09:17:13.743Z,6.41
2022-11-14T09:19:59.247Z,6.02
2022-11-14T09:22:45.207Z,6.03
2022-11-14T09:25:31.153Z,5.36
2022-11-14T09:28:16.961Z,5.58
2022-11-14T09:31:04.249Z,5.57
2022-11-14T09:33:49.833Z,5.53
2022-11-14T09:36:36.056Z,5.65
2022-11-14T09:39:21.466Z,5.58
2022-11-14T09:42:22.134Z,5.69
2022-11-14T09:45:16.371Z,5.87
2022-11-14T09:48:26.032Z,4.04
2022-11-14T09:51:22.467Z,6.01
2022-11-14T09:54:29.656Z,6.15
2022-11-14T09:57:28.680Z,6.09
2022-11-14T10:00:23.180Z,5.70
2022-11-14T10:03:28.677Z,5.86
2022-11-14T10:06:22.897Z,5.55
2022-11-14T10:09:36.035Z,5.47
2022-11-14T10:12:37.977Z,5.32
2022-11-14T10:15:37.153Z,4.92
2022-11-14T10:18:33.526Z,5.40
2022-11-14T10:21:43.225Z,5.84
2022-11-14T10:24:58.967Z,6.50
2022-11-14T10:28:24.833Z,7.09
2022-11-14T10:31:47.668Z,8.08
2022-11-14T10:34:46.634Z,8.13
2022-11-14T10:37:37.981Z,8.56
2022-11-14T10:40:49.131Z,8.67
2022-11-14T10:43:43.525Z,8.30
2022-11-14T10:46:41.374Z,8.37
2022-11-14T10:49:30.837Z,8.53
2022-11-14T10:52:20.904Z,8.60
2022-11-14T10:55:24.813Z,8.76
2022-11-14T10:58:24.121Z,8.12
2022-11-14T11:01:41.939Z,7.99
2022-11-14T11:04:33.300Z,7.65
2022-11-14T11:07:41.198Z,7.67
2022-11-14T11:10:45.656Z,7.32
2022-11-14T11:13:48.453Z,7.06
2022-11-14T11:16:34.338Z,6.34
2022-11-14T11:19:25.950Z,6.45
2022-11-14T11:22:38.645Z,6.43
2022-11-14T11:25:29.682Z,6.34
2022-11-14T11:28:20.942Z,6.05
2022-11-14T11:31:11.325Z,5.90
2022-11-14T11:34:03.412Z,5.93
2022-11-14T11:37:04.210Z,5.82
2022-11-14T11:39:53.134Z,5.43
2022-11-14T11:43:36.773Z,5.18
2022-11-14T11:45:54.790Z,5.26
2022-11-14T11:48:41.081Z,5.09
2022-11-14T11:51:27.959Z,4.34
2022-11-14T11:54:18.092Z,4.91
2022-11-14T11:57:13.987Z,4.55
2022-11-14T12:00:21.952Z,4.58
2022-11-14T12:03:14.384Z,3.95
2022-11-14T12:06:20.505Z,4.17
2022-11-14T12:09:26.823Z,4.00
2022-11-14T12:12:34.669Z,3.68
2022-11-14T12:15:55.032Z,3.11
2022-11-14T12:18:59.256Z,3.73
2022-11-14T12:22:04.001Z,3.63
2022-11-14T12:25:18.930Z,2.99
2022-11-14T12:28:25.515Z,3.34
2022-11-14T12:31:17.123Z,3.47
2022-11-14T12:34:45.691Z,3.24
2022-11-14T12:37:37.752Z,3.24
2022-11-14T12:40:25.947Z,2.83
2022-11-14T12:43:41.875Z,3.12
2022-11-14T12:46:27.666Z,2.66
2022-11-14T12:49:48.993Z,2.90
2022-11-14T12:52:40.730Z,2.78
2022-11-14T12:55:26.241Z,2.73
2022-11-14T12:58:13.834Z,2.67
2022-11-14T13:01:04.826Z,2.65
2022-11-14T13:04:08.341Z,2.64
2022-11-14T13:07:21.006Z,2.56
2022-11-14T13:10:27.983Z,2.51
2022-11-14T13:13:36.564Z,2.42
2022-11-14T13:16:44.303Z,1.71
2022-11-14T13:19:48.259Z,2.21
2022-11-14T13:22:47.117Z,2.18
2022-11-14T13:25:32.757Z,2.18
2022-11-14T13:28:36.634Z,2.24
2022-11-14T13:31:35.036Z,2.02
2022-11-14T13:34:49.896Z,2.17
2022-11-14T13:37:47.937Z,1.95
2022-11-14T13:41:04.265Z,2.06
2022-11-14T13:44:04.810Z,2.03
2022-11-14T13:47:02.371Z,1.51
2022-11-14T13:50:05.854Z,2.01
2022-11-14T13:52:51.587Z,1.92
2022-11-14T13:56:15.077Z,1.89
2022-11-14T13:59:31.323Z,1.37
2022-11-14T14:02:52.943Z,1.89
2022-11-14T14:06:11.949Z,1.88
2022-11-14T14:09:08.498Z,1.58
2022-11-14T14:12:03.033Z,1.81
2022-11-14T14:15:17.966Z,1.86
2022-11-14T14:18:03.764Z,1.89
2022-11-14T14:21:05.647Z,1.89
2022-11-14T14:24:17.979Z,2.05
2022-11-14T14:27:24.789Z,2.06
2022-11-14T14:30:14.218Z,0.53
2022-11-14T14:33:11.331Z,2.12
2022-11-14T14:35:56.452Z,1.82
2022-11-14T14:38:42.365Z,2.17
2022-11-14T14:41:31.900Z,2.13
2022-11-14T14:44:37.176Z,2.26
2022-11-14T14:47:42.165Z,2.29
2022-11-14T14:50:33.997Z,2.26
2022-11-14T14:53:21.277Z,2.21
2022-11-14T14:56:18.613Z,2.35
2022-11-14T14:59:18.468Z,2.23
2022-11-14T15:02:04.598Z,2.08
2022-11-14T15:04:50.296Z,1.79
2022-11-14T15:07:39.599Z,2.28
2022-11-14T15:10:29.752Z,2.21
2022-11-14T15:13:17.984Z,2.51
2022-11-14T15:16:04.573Z,2.50
2022-11-14T15:18:52.249Z,2.46
2022-11-14T15:21:37.601Z,2.31
2022-11-14T15:24:23.826Z,1.78
2022-11-14T15:27:19.422Z,2.27
2022-11-14T15:30:19.380Z,2.37
2022-11-14T15:33:07.395Z,1.94
2022-11-14T15:36:17.973Z,2.51
2022-11-14T15:39:21.713Z,1.94
2022-11-14T15:42:28.271Z,2.52
2022-11-14T15:45:23.013Z,2.47
2022-11-14T15:48:18.365Z,2.24
2022-11-14T15:51:04.614Z,2.30
2022-11-14T15:53:52.232Z,2.45
2022-11-14T15:56:38.276Z,2.01
2022-11-14T15:59:25.492Z,1.95
2022-11-14T16:02:17.232Z,2.29
2022-11-14T16:05:04.500Z,2.44
2022-11-14T16:07:50.291Z,0.36
2022-11-14T16:10:35.974Z,2.40
2022-11-14T16:13:22.283Z,2.42
2022-11-14T16:16:08.882Z,2.43
2022-11-14T16:18:54.693Z,2.39
2022-11-14T16:21:40.724Z,2.48
2022-11-14T16:24:31.081Z,2.05
2022-11-14T16:27:18.877Z,2.34
2022-11-14T16:30:05.020Z,2.27
2022-11-14T16:32:51.795Z,2.57
2022-11-14T16:35:37.514Z,1.73
2022-11-14T16:38:23.032Z,2.57
2022-11-14T16:41:09.631Z,2.59
2022-11-14T16:43:56.795Z,2.56
2022-11-14T16:46:44.176Z,2.36
2022-11-14T16:49:29.648Z,2.56
2022-11-14T16:52:17.189Z,2.10
2022-11-14T16:55:04.490Z,2.46
2022-11-14T16:57:49.946Z,2.15
2022-11-14T17:00:37.745Z,2.50
2022-11-14T17:03:23.380Z,2.65
2022-11-14T17:06:10.659Z,2.53
2022-11-14T17:08:57.607Z,2.56
2022-11-14T17:11:44.850Z,2.51
2022-11-14T17:14:30.669Z,2.54
2022-11-14T17:17:16.152Z,2.08
2022-11-14T17:20:01.957Z,2.58
2022-11-14T17:22:47.265Z,2.41
2022-11-14T17:25:33.053Z,2.57
2022-11-14T17:28:18.485Z,2.43
2022-11-14T17:31:10.901Z,1.60
2022-11-14T17:33:59.656Z,2.49
2022-11-14T17:36:45.352Z,1.45
2022-11-14T17:39:31.361Z,2.42
2022-11-14T17:42:16.952Z,2.56
2022-11-14T17:45:02.735Z,2.54
2022-11-14T17:47:48.283Z,2.50
2022-11-14T17:50:37.602Z,2.47
2022-11-14T17:53:23.468Z,2.30
2022-11-14T17:56:15.490Z,2.40
2022-11-14T17:59:01.476Z,2.39
2022-11-14T18:01:47.640Z,2.45
2022-11-14T18:04:33.395Z,2.44
2022-11-14T18:07:20.724Z,2.27
2022-11-14T18:10:06.668Z,2.37
2022-11-14T18:12:52.685Z,2.44
2022-11-14T18:15:39.332Z,2.40
2022-11-14T18:18:29.070Z,2.31
2022-11-14T18:21:21.185Z,2.24
2022-11-14T18:24:14.286Z,2.37
2022-11-14T18:27:00.028Z,2.43
2022-11-14T18:29:45.455Z,2.24
2022-11-14T18:32:32.403Z,2.36
2022-11-14T18:35:18.240Z,2.39
2022-11-14T18:38:03.772Z,2.28
2022-11-14T18:40:54.332Z,2.46
2022-11-14T18:43:44.584Z,2.49
2022-11-14T18:46:37.074Z,2.57
2022-11-14T18:49:23.382Z,2.39
2022-11-14T18:52:14.205Z,2.41
2022-11-14T18:55:04.316Z,2.18
2022-11-14T18:57:49.982Z,2.24
2022-11-14T19:00:35.633Z,2.33
2022-11-14T19:03:20.977Z,2.16
2022-11-14T19:06:08.170Z,2.30
2022-11-14T19:08:58.951Z,2.37
2022-11-14T19:12:03.188Z,1.81
2022-11-14T19:14:53.161Z,2.34
2022-11-14T19:17:39.102Z,2.32
2022-11-14T19:20:25.904Z,1.59
2022-11-14T19:23:12.009Z,2.23
2022-11-14T19:26:01.616Z,2.12
2022-11-14T19:28:48.076Z,2.22
2022-11-14T19:31:34.033Z,1.94
2022-11-14T19:34:19.673Z,2.02
2022-11-14T19:37:05.356Z,0.81
2022-11-14T19:39:55.440Z,2.14
2022-11-14T19:42:40.982Z,2.30
2022-11-14T19:45:26.735Z,2.29
2022-11-14T19:48:12.738Z,1.84
2022-11-14T19:51:01.953Z,2.12
2022-11-14T19:53:48.744Z,2.36
2022-11-14T19:56:34.316Z,2.33
2022-11-14T19:59:24.192Z,2.24
2022-11-14T20:02:14.183Z,2.32
2022-11-14T20:05:00.002Z,1.54
2022-11-14T20:07:45.508Z,2.30
2022-11-14T20:10:30.775Z,1.67
2022-11-14T20:13:16.558Z,2.35
2022-11-14T20:16:11.528Z,2.27
2022-11-14T20:19:00.275Z,2.31
2022-11-14T20:21:46.020Z,2.31
2022-11-14T20:24:31.682Z,2.27
2022-11-14T20:27:17.361Z,2.15
2022-11-14T20:30:04.146Z,2.29
2022-11-14T20:32:49.868Z,2.31
2022-11-14T20:35:38.691Z,2.15
2022-11-14T20:38:24.239Z,1.86
2022-11-14T20:41:10.795Z,1.99
2022-11-14T20:43:56.900Z,0.03
2022-11-14T20:46:42.436Z,2.14
2022-11-14T20:49:27.829Z,2.09
2022-11-14T20:52:15.286Z,2.06
2022-11-14T20:55:01.171Z,2.13
2022-11-14T20:57:47.072Z,2.07
2022-11-14T21:00:32.660Z,2.08
2022-11-14T21:03:19.045Z,2.00
2022-11-14T21:06:07.264Z,1.90
2022-11-14T21:08:53.058Z,1.78
2022-11-14T21:11:38.828Z,2.05
2022-11-14T21:14:24.778Z,1.39
2022-11-14T21:17:10.331Z,2.00
2022-11-14T21:19:55.854Z,1.97
2022-11-14T21:22:41.563Z,1.91
2022-11-14T21:25:27.357Z,2.00
2022-11-14T21:28:13.027Z,1.98
2022-11-14T21:31:00.888Z,1.98
2022-11-14T21:33:48.821Z,0.40
2022-11-14T21:36:49.695Z,1.48
2022-11-14T21:39:35.140Z,1.98
2022-11-14T21:42:20.731Z,1.49
2022-11-14T21:45:07.410Z,1.98
2022-11-14T21:47:53.179Z,2.01
2022-11-14T21:50:38.794Z,2.06
2022-11-14T21:53:24.588Z,1.76
2022-11-14T21:56:25.736Z,1.38
2022-11-14T21:59:18.944Z,1.96
2022-11-14T22:02:23.276Z,1.96
2022-11-14T22:05:08.805Z,2.08
2022-11-14T22:07:54.355Z,1.51
2022-11-14T22:10:39.890Z,1.96
2022-11-14T22:13:25.180Z,1.87
2022-11-14T22:16:11.719Z,1.32
2022-11-14T22:19:04.539Z,2.07
2022-11-14T22:21:51.122Z,1.87
2022-11-14T22:24:36.963Z,2.04
2022-11-14T22:27:22.474Z,1.77
2022-11-14T22:30:09.036Z,2.01
2022-11-14T22:32:54.576Z,2.13
2022-11-14T22:35:40.646Z,1.95
2022-11-14T22:38:28.929Z,1.97
2022-11-14T22:41:16.998Z,1.92
2022-11-14T22:44:02.765Z,1.85
2022-11-14T22:46:48.437Z,1.96
2022-11-14T22:49:33.589Z,1.62
2022-11-14T22:52:19.578Z,1.96
2022-11-14T22:55:05.406Z,1.31
2022-11-14T22:57:51.252Z,1.84
2022-11-14T23:00:37.074Z,0.85
2022-11-14T23:03:23.056Z,1.81
2022-11-14T23:06:10.220Z,1.26
2022-11-14T23:08:56.310Z,1.46
2022-11-14T23:11:41.772Z,1.86
2022-11-14T23:14:27.557Z,2.05
2022-11-14T23:17:13.145Z,2.05
2022-11-14T23:19:58.818Z,1.83
2022-11-14T23:22:44.398Z,1.81
2022-11-14T23:25:29.713Z,1.51
2022-11-14T23:28:15.876Z,2.01
2022-11-14T23:31:02.196Z,2.02
2022-11-14T23:33:49.647Z,2.03
2022-11-14T23:36:35.061Z,1.82
2022-11-14T23:39:20.568Z,2.02
2022-11-14T23:42:06.548Z,1.91
2022-11-14T23:44:52.043Z,1.94
2022-11-14T23:47:37.356Z,1.89
2022-11-14T23:50:25.367Z,1.90
2022-11-14T23:53:11.783Z,1.88
2022-11-14T23:56:02.319Z,1.61
2022-11-14T23:58:48.488Z,1.67
